Galatia, New York
Current Conditions -  °F | °C
As of 2:35 PM on Saturday 25 Oct 2014 (Local Time) from KN03 Reporting Station
Broken Clouds Broken Clouds  
Wind Chill: 16°   Ceiling: 9500
Heat Index: 16°   Visibility: 10mi
Dew Point:   Wind: 10mph
Humidity: 55%   Direction: 220°SW
Pressure: 29.66"   Gusts: NA
Location:  42.4596°N, 76.0658°W
Report Text: KN03 251835Z AUTO 22009KT 10SM SCT080 BKN095 16/07 A2966 RMK AO2
Loading
Personal Weather Stations






























Interactive Weather Map
Tropical Storm Tracking
New forecast layout! Learn more

10-Day Weather Forecast

Advertisements
Track Severe Weather on mobile